Nearby METAR Reports

 

EGNV - Tees-Side, United Kingdom
Distance from station: W 8mi, 13km
Updated: 06/12/2019 05:50
Mostly cloudy
Mostly cloudy
 Wind from SSW
Wind: SSW 17 mph , 28 km/h
Temperature: 11°C
Dew Point: 10°C
Humidity: 94%
Barometer: 997 hPa
Clouds: Mostly cloudy
Visibility: 6 miles , 10 km
Cloud details: Few Clouds 396 m
Mostly cloudy 610 m
2019/12/06 05:50 EGNV 060550Z 21015KT 9999 FEW013 BKN020 11/10 Q0997
EGXE - Leeming Raf, United Kingdom
Distance from station: SW 21mi, 34km
Updated: 06/12/2019 05:50
Mostly cloudy
Mostly cloudy
 Wind from S
Wind: S 12 mph , 19 km/h
Temperature: 11°C
Dew Point: 10°C
Humidity: 94%
Barometer: 998 hPa
Clouds: Mostly cloudy
Visibility: 6 miles , 10 km
Cloud details: Mostly cloudy 549 m
2019/12/06 05:50 EGXE 060550Z AUTO 18010KT 9999 BKN018/// 11/10 Q0998
 
EGXZ - Topcliffe Raf, United Kingdom
Distance from station: SSW 24mi, 38km
Updated: 06/12/2019 05:50
Light rain, Mostly cloudy
Light rain, Mostly cloudy
 Wind from S
Wind: S 12 mph , 19 km/h
Temperature: 11°C
Dew Point: 11°C
Humidity: 100%
Barometer: 998 hPa
Summary: Light rain
Clouds: Mostly cloudy
Visibility: 3 miles , 4 km
Cloud details: Few Clouds 152 m
Partly cloudy 366 m
Mostly cloudy 579 m
2019/12/06 05:50 EGXZ 060550Z AUTO 18010KT 4100 -RA FEW005/// SCT012/// BKN019/// 11/11 Q0998
EGXD - Dishforth Raf, United Kingdom
Distance from station: SSW 29mi, 46km
Updated: 06/06/2016 10:50
NOT Current
Clear
Clear
 Wind from SSE
Wind: SSE 5 mph , 7 km/h
Temperature: 18°C
Dew Point: 11°C
Humidity: 64%
Barometer: 1023 hPa
Clouds: Clear
Visibility: 6 miles , 10 km
2016/06/06 09:50 EGXD 060950Z AUTO 16004KT 9999 // NCD 18/11 Q1023
 
EGXU - Linton-On-Ouse R, United Kingdom
Distance from station: S 33mi, 53km
Updated: 06/12/2019 05:50
Mostly cloudy
Mostly cloudy
 Wind from S
Wind: S 9 mph , 15 km/h
Temperature: 11°C
Dew Point: 11°C
Humidity: 100%
Barometer: 998 hPa
Clouds: Mostly cloudy
Visibility: 2 miles , 3 km
Cloud details: Mostly cloudy 396 m
Mostly cloudy 701 m
2019/12/06 05:50 EGXU 060550Z AUTO 19008KT 3300 // BKN013/// BKN023/// 11/11 Q0998
EGNT - Newcastle, United Kingdom
Distance from station: NNW 39mi, 63km
Updated: 06/12/2019 06:20
Light rain, Mostly cloudy
Light rain, Mostly cloudy
 Wind from varies
Wind: varies 3 mph , 6 km/h
Temperature: 10°C
Dew Point: 10°C
Humidity: 100%
Barometer: 995 hPa
Summary: Light rain
Clouds: Mostly cloudy
Visibility: 6 miles , 10 km
Cloud details: Mostly cloudy 427 m
2019/12/06 06:20 EGNT 060620Z VRB03KT 9999 -RA BKN014 10/10 Q0995
 
EGNM - Leeds And Bradfo, United Kingdom
Distance from station: SSW 49mi, 79km
Updated: 06/12/2019 06:20
Light rain, Drizzle, Mostly cloudy
Light rain, Drizzle, Mostly cloudy
 Wind from SSW
Wind: SSW 17 mph , 28 km/h
Temperature: 10°C
Wind Chill: 7°C
Dew Point: 10°C
Humidity: 100%
Barometer: 998 hPa
Summary: Light rain, Drizzle
Clouds: Mostly cloudy
Visibility: 6 miles , 9 km
Cloud details: Partly cloudy 122 m
Mostly cloudy 183 m
2019/12/06 06:20 EGNM 060620Z 21015KT 9000 -RADZ SCT004 BKN006 10/10 Q0998